Time;durP1;ratioP1;P1;durP2;ratioP2;P2;SDS_P1;SDS_P2;PMS_P1;PMS_P2;Temp;Humidity;BMP_temperature;BMP_pressure;BME280_temperature;BME280_humidity;BME280_pressure;Samples;Min_cycle;Max_cycle;Signal;HPM_P1;HPM_P2
2022/07/30 00:00:05;;;;;;;25.33;13.07;;;;;;;-145.18;100.00;46631.09;5011082;28;20546;-74
2022/07/30 00:02:31;;;;;;;16.47;12.20;;;;;;;-145.18;100.00;46627.19;5010039;28;20034;-74
2022/07/30 00:04:56;;;;;;;20.70;12.07;;;;;;;-145.18;100.00;46629.13;5010881;28;20372;-74
2022/07/30 00:07:22;;;;;;;22.30;13.10;;;;;;;-145.18;100.00;46629.13;5010669;28;20038;-74
2022/07/30 00:09:47;;;;;;;21.30;14.57;;;;;;;-145.18;100.00;46629.13;5011023;28;20456;-73
2022/07/30 00:12:13;;;;;;;18.43;14.17;;;;;;;-145.18;100.00;46629.13;5010234;28;20033;-74
2022/07/30 00:14:38;;;;;;;20.63;14.17;;;;;;;-145.18;100.00;46627.19;5010965;28;20036;-74
2022/07/30 00:17:04;;;;;;;24.33;14.20;;;;;;;-145.18;100.00;46631.09;5010200;28;20038;-74
2022/07/30 00:19:29;;;;;;;20.57;14.57;;;;;;;-145.18;100.00;46629.13;5010791;28;20467;-74
2022/07/30 00:21:55;;;;;;;20.90;14.30;;;;;;;-145.18;100.00;46629.13;5010367;28;20040;-74
2022/07/30 00:24:21;;;;;;;23.00;14.07;;;;;;;-145.18;100.00;46633.06;5011053;28;20034;-74
2022/07/30 00:26:46;;;;;;;21.30;14.30;;;;;;;-145.18;100.00;46625.22;5010472;28;20068;-74
2022/07/30 00:29:12;;;;;;;25.70;15.10;;;;;;;-145.18;100.00;46631.09;5010689;28;20575;-74
2022/07/30 00:31:37;;;;;;;24.03;14.83;;;;;;;-145.18;100.00;46633.06;5010266;28;20502;-74
2022/07/30 00:34:03;;;;;;;22.87;14.17;;;;;;;-145.18;100.00;46629.13;5010798;28;20061;-74
2022/07/30 00:36:28;;;;;;;22.80;14.17;;;;;;;-145.18;100.00;46633.06;5010424;28;20040;-74
2022/07/30 00:38:54;;;;;;;23.37;13.50;;;;;;;-145.18;100.00;46629.13;5010545;28;20038;-73
2022/07/30 00:41:19;;;;;;;20.30;13.37;;;;;;;-145.18;100.00;46627.19;5010380;28;20088;-73
2022/07/30 00:43:44;;;;;;;27.03;13.13;;;;;;;-145.18;100.00;46629.13;5010560;28;20418;-73
2022/07/30 00:46:10;;;;;;;21.23;12.57;;;;;;;-145.18;100.00;46633.06;5010349;28;20394;-73
2022/07/30 00:48:35;;;;;;;18.73;12.70;;;;;;;-145.18;100.00;46631.09;5010544;28;20052;-73
2022/07/30 00:51:01;;;;;;;19.27;11.33;;;;;;;-145.18;100.00;46631.09;5010412;28;20479;-73
2022/07/30 00:53:26;;;;;;;23.43;11.93;;;;;;;-145.18;100.00;46633.06;5010302;28;20034;-74
2022/07/30 00:55:52;;;;;;;20.53;12.53;;;;;;;-145.18;100.00;46627.19;5010263;28;20395;-73
2022/07/30 00:58:17;;;;;;;22.13;12.37;;;;;;;-145.18;100.00;46629.13;5010094;28;20433;-73
2022/07/30 01:00:42;;;;;;;16.83;11.30;;;;;;;-145.18;100.00;46629.13;5010405;28;20376;-73
2022/07/30 01:03:08;;;;;;;20.00;12.20;;;;;;;-145.18;100.00;46631.09;5009679;28;20046;-74
2022/07/30 01:05:33;;;;;;;18.97;11.70;;;;;;;-145.18;100.00;46631.09;5010594;28;20048;-73
2022/07/30 01:07:59;;;;;;;20.37;10.87;;;;;;;-145.18;100.00;46627.19;5009554;28;20130;-74
2022/07/30 01:10:24;;;;;;;12.73;9.90;;;;;;;-145.18;100.00;46629.13;5010714;28;20065;-73
2022/07/30 01:12:51;;;;;;;17.37;9.80;;;;;;;-145.18;100.00;46631.09;5010051;28;20033;-73
2022/07/30 01:15:17;;;;;;;14.90;8.77;;;;;;;-145.18;100.00;46629.13;5010344;28;20504;-73
2022/07/30 01:17:45;;;;;;;14.17;8.63;;;;;;;-145.18;100.00;46633.06;5009906;28;20025;-73
2022/07/30 01:20:16;;;;;;;15.33;10.07;;;;;;;-145.18;100.00;46635.00;5010119;28;20026;-73
2022/07/30 01:23:05;;;;;;;18.90;10.03;;;;;;;-145.18;100.00;46635.00;5009614;28;20037;-73
2022/07/30 01:25:31;;;;;;;13.33;9.17;;;;;;;-145.18;100.00;46633.06;5010487;28;20041;-73
2022/07/30 01:28:07;;;;;;;18.80;9.80;;;;;;;-145.18;100.00;46633.06;5010442;28;20033;-74
2022/07/30 01:30:40;;;;;;;12.93;9.20;;;;;;;-145.18;100.00;46633.06;5014147;28;20041;-73
2022/07/30 01:33:09;;;;;;;15.27;10.33;;;;;;;-145.18;100.00;46633.06;5012985;28;20034;-73
2022/07/30 01:35:35;;;;;;;14.87;10.20;;;;;;;-145.18;100.00;46636.94;5013913;28;20033;-73
2022/07/30 01:38:04;;;;;;;16.97;10.07;;;;;;;-145.18;100.00;46636.94;5013309;28;20546;-74
2022/07/30 01:40:30;;;;;;;17.40;10.50;;;;;;;-145.18;100.00;46635.00;5072878;23;20057;-72
2022/07/30 01:42:58;;;;;;;20.10;10.80;;;;;;;-145.18;100.00;46635.00;4994050;28;20041;-73
2022/07/30 01:45:27;;;;;;;16.97;10.63;;;;;;;-145.18;100.00;46636.94;5013903;28;20084;-72
2022/07/30 01:47:54;;;;;;;17.57;11.27;;;;;;;-145.18;100.00;46636.94;5013027;28;20030;-72
2022/07/30 01:50:21;;;;;;;15.80;10.43;;;;;;;-145.18;100.00;46635.00;5013711;28;20121;-72
2022/07/30 01:52:48;;;;;;;17.23;10.77;;;;;;;-145.18;100.00;46633.06;5013273;28;20026;-72
2022/07/30 01:55:17;;;;;;;21.50;10.57;;;;;;;-145.18;100.00;46631.09;5013418;28;20546;-72
2022/07/30 01:57:45;;;;;;;21.67;11.53;;;;;;;-145.18;100.00;46633.06;5013003;28;20026;-72
2022/07/30 02:00:12;;;;;;;16.40;10.87;;;;;;;-145.18;100.00;46635.00;5013223;28;20587;-72
2022/07/30 02:02:39;;;;;;;16.27;9.77;;;;;;;-145.18;100.00;46631.09;5301811;23;20426;-71
2022/07/30 02:05:06;;;;;;;19.50;10.07;;;;;;;-145.18;100.00;46633.06;4985529;28;20132;-72
2022/07/30 02:07:40;;;;;;;14.47;9.43;;;;;;;-145.18;100.00;46631.09;4973658;28;20042;-72
2022/07/30 02:10:24;;;;;;;15.97;8.53;;;;;;;-145.18;100.00;46635.00;4973875;28;20173;-72
2022/07/30 02:12:54;;;;;;;14.13;9.13;;;;;;;-145.18;100.00;46636.94;4973764;28;20507;-72
2022/07/30 02:15:50;;;;;;;11.33;8.43;;;;;;;-145.18;100.00;46636.94;4957070;28;20058;-72
2022/07/30 02:18:39;;;;;;;12.13;7.68;;;;;;;-145.18;100.00;46638.91;4973567;28;20494;-72
2022/07/30 02:21:07;;;;;;;11.57;8.37;;;;;;;-145.18;100.00;46638.91;4973783;28;20038;-72
2022/07/30 02:23:45;;;;;;;12.07;7.67;;;;;;;-145.18;100.00;46636.94;4973608;28;20065;-72
2022/07/30 02:26:17;;;;;;;11.40;7.93;;;;;;;-145.18;100.00;46640.88;4973709;28;20788;-72
2022/07/30 02:28:46;;;;;;;13.43;7.87;;;;;;;-145.18;100.00;46644.78;4973732;28;20031;-72
2022/07/30 02:31:16;;;;;;;13.37;7.60;;;;;;;-145.18;100.00;46640.88;4973516;28;20027;-72
2022/07/30 02:33:43;;;;;;;11.50;8.37;;;;;;;-145.18;100.00;46640.88;4973758;28;20066;-72
2022/07/30 02:36:10;;;;;;;20.53;10.67;;;;;;;-145.18;100.00;46642.81;4973597;28;20502;-72
2022/07/30 02:38:41;;;;;;;14.27;11.20;;;;;;;-145.18;100.00;46638.91;4973184;28;20039;-72
2022/07/30 02:41:07;;;;;;;20.63;11.53;;;;;;;-145.18;100.00;46640.88;4973351;28;20030;-72
2022/07/30 02:43:36;;;;;;;25.30;13.70;;;;;;;-145.18;100.00;46636.94;4973276;28;20034;-72
2022/07/30 02:46:03;;;;;;;20.20;13.97;;;;;;;-145.18;100.00;46636.94;4973598;28;20031;-72
2022/07/30 02:48:30;;;;;;;21.40;14.93;;;;;;;-145.18;100.00;46638.91;4973102;28;20118;-72
2022/07/30 02:50:57;;;;;;;22.97;13.73;;;;;;;-145.18;100.00;46638.91;4973371;28;20031;-72
2022/07/30 02:53:26;;;;;;;21.70;14.27;;;;;;;-145.18;100.00;46635.00;4973215;28;20023;-72
2022/07/30 02:55:54;;;;;;;29.63;16.30;;;;;;;-145.18;100.00;46633.06;4973289;28;20046;-72
2022/07/30 02:58:22;;;;;;;19.93;15.37;;;;;;;-145.18;100.00;46636.94;4972858;28;20069;-72
2022/07/30 03:00:51;;;;;;;27.60;16.60;;;;;;;-145.18;100.00;46635.00;4973195;28;20042;-72
2022/07/30 03:03:17;;;;;;;24.37;15.77;;;;;;;-145.18;100.00;46635.00;4972570;28;20582;-72
2022/07/30 03:05:44;;;;;;;22.47;16.33;;;;;;;-145.18;100.00;46635.00;4973362;28;20030;-72
2022/07/30 03:08:10;;;;;;;28.20;16.07;;;;;;;-145.18;100.00;46633.06;4972540;28;20049;-72
2022/07/30 03:10:36;;;;;;;23.03;16.40;;;;;;;-145.18;100.00;46633.06;4973240;28;20026;-72
2022/07/30 03:13:05;;;;;;;25.30;17.43;;;;;;;-145.18;100.00;46636.94;4972355;28;20046;-72
2022/07/30 03:15:33;;;;;;;27.57;18.47;;;;;;;-145.18;100.00;46633.06;4973138;28;20053;-72
2022/07/30 03:18:00;;;;;;;28.10;17.60;;;;;;;-145.18;100.00;46633.06;4972315;28;20034;-72
2022/07/30 03:20:28;;;;;;;30.30;18.20;;;;;;;-145.18;100.00;46629.13;4973214;28;20035;-72
2022/07/30 03:22:57;;;;;;;24.73;17.50;;;;;;;-145.18;100.00;46635.00;4972774;28;20031;-72
2022/07/30 03:25:25;;;;;;;21.67;16.03;;;;;;;-145.18;100.00;46631.09;4973040;28;20043;-72
2022/07/30 03:27:53;;;;;;;16.60;14.33;;;;;;;-145.18;100.00;46635.00;4972514;28;20035;-73
2022/07/30 03:30:18;;;;;;;19.87;13.77;;;;;;;-145.18;100.00;46635.00;4972489;28;20043;-73
2022/07/30 03:32:45;;;;;;;17.33;12.77;;;;;;;-145.18;100.00;46635.00;4972471;28;20475;-73
2022/07/30 03:35:11;;;;;;;19.37;13.43;;;;;;;-145.18;100.00;46631.09;4976501;28;20133;-73
2022/07/30 03:37:39;;;;;;;18.37;13.30;;;;;;;-145.18;100.00;46635.00;4988930;28;20117;-72
2022/07/30 03:40:06;;;;;;;16.13;13.00;;;;;;;-145.18;100.00;46633.06;4990275;28;20026;-72
2022/07/30 03:42:34;;;;;;;15.03;12.30;;;;;;;-145.18;100.00;46635.00;4971137;28;20473;-73
2022/07/30 03:45:02;;;;;;;17.43;12.83;;;;;;;-145.18;100.00;46631.09;4991461;28;20022;-73
2022/07/30 03:47:30;;;;;;;19.07;12.07;;;;;;;-145.18;100.00;46633.06;4991056;28;20505;-73
2022/07/30 03:49:57;;;;;;;10.00;8.40;;;;;;;-145.18;100.00;46629.13;4990957;28;20037;-73
2022/07/30 03:52:23;;;;;;;18.37;9.83;;;;;;;-145.18;100.00;46636.94;4990873;28;20057;-73
2022/07/30 03:54:49;;;;;;;17.03;9.83;;;;;;;-145.18;100.00;46636.94;4990788;28;20514;-73
2022/07/30 03:57:14;;;;;;;9.27;8.23;;;;;;;-145.18;100.00;46633.06;4990281;28;20033;-74
2022/07/30 03:59:40;;;;;;;11.13;8.17;;;;;;;-145.18;100.00;46635.00;4991005;28;20027;-74
2022/07/30 04:02:05;;;;;;;20.03;10.60;;;;;;;-145.18;100.00;46633.06;4989587;28;20022;-73
2022/07/30 04:04:30;;;;;;;11.90;9.40;;;;;;;-145.18;100.00;46638.91;4990754;28;20117;-73
2022/07/30 04:06:57;;;;;;;11.50;9.37;;;;;;;-145.18;100.00;46636.94;4990830;28;20064;-74
2022/07/30 04:09:23;;;;;;;12.20;9.20;;;;;;;-145.18;100.00;46636.94;4990850;28;20018;-74
2022/07/30 04:11:48;;;;;;;11.37;7.97;;;;;;;-145.18;100.00;46640.88;4990557;28;20039;-74
2022/07/30 04:14:14;;;;;;;10.60;7.80;;;;;;;-145.18;100.00;46642.81;4990042;28;20406;-74
2022/07/30 04:16:50;;;;;;;9.27;6.90;;;;;;;-145.18;100.00;46642.81;4973671;28;20459;-74
2022/07/30 04:19:21;;;;;;;9.80;7.83;;;;;;;-145.18;100.00;46640.88;4990208;28;20035;-74
2022/07/30 04:21:49;;;;;;;8.43;7.10;;;;;;;-145.18;100.00;46636.94;4990932;28;20356;-74
2022/07/30 04:24:16;;;;;;;10.57;5.63;;;;;;;-145.18;100.00;46636.94;4990461;28;20034;-73
2022/07/30 04:26:42;;;;;;;8.33;5.67;;;;;;;-145.18;100.00;46642.81;4973180;28;20030;-73
2022/07/30 04:29:09;;;;;;;12.23;4.70;;;;;;;-145.18;100.00;46652.59;4989977;28;20151;-73
2022/07/30 04:31:35;;;;;;;21.37;7.57;;;;;;;-145.18;100.00;46650.63;4990692;28;20022;-73
2022/07/30 04:34:04;;;;;;;8.33;7.53;;;;;;;-145.18;100.00;46640.88;4990188;28;20049;-73
2022/07/30 04:36:34;;;;;;;7.57;6.23;;;;;;;-145.18;100.00;46652.59;4990687;28;20038;-73
2022/07/30 04:39:00;;;;;;;8.23;6.90;;;;;;;-145.18;100.00;46654.53;4990167;28;20073;-72
2022/07/30 04:41:26;;;;;;;9.53;5.83;;;;;;;-145.18;100.00;46652.59;4990345;28;20054;-73
2022/07/30 04:43:52;;;;;;;7.87;6.13;;;;;;;-145.18;100.00;46650.63;4990125;28;20042;-73
2022/07/30 04:46:17;;;;;;;7.67;5.80;;;;;;;-145.18;100.00;46640.88;4990146;28;20023;-73
2022/07/30 04:48:44;;;;;;;12.83;6.53;;;;;;;-145.18;100.00;46652.59;4989969;28;20037;-73
2022/07/30 04:51:18;;;;;;;8.50;6.67;;;;;;;-145.18;100.00;46652.59;4989746;28;20379;-73
2022/07/30 04:53:45;;;;;;;7.60;6.50;;;;;;;-145.18;100.00;46654.53;4988040;28;20411;-72
2022/07/30 04:56:13;;;;;;;11.03;6.53;;;;;;;-145.18;100.00;46656.50;4988325;28;20035;-72
2022/07/30 04:58:40;;;;;;;11.30;6.27;;;;;;;-145.18;100.00;46656.50;4989774;28;20038;-73
2022/07/30 05:01:07;;;;;;;8.27;7.07;;;;;;;-145.18;100.00;46652.59;4990199;28;20525;-73
2022/07/30 05:03:34;;;;;;;12.20;6.60;;;;;;;-145.18;100.00;46658.44;4993872;28;20061;-73
2022/07/30 05:06:01;;;;;;;12.27;7.27;;;;;;;-145.18;100.00;46654.53;4994474;28;20085;-73
2022/07/30 05:08:27;;;;;;;14.03;7.53;;;;;;;-145.18;100.00;46652.59;4994753;28;20117;-73
2022/07/30 05:10:52;;;;;;;11.87;7.20;;;;;;;-145.18;100.00;46652.59;4994932;28;20034;-72
2022/07/30 05:13:18;;;;;;;9.77;7.60;;;;;;;-145.18;100.00;46656.50;4994126;28;20062;-73
2022/07/30 05:15:43;;;;;;;10.73;7.87;;;;;;;-145.18;100.00;46654.53;4977548;28;20114;-73
2022/07/30 05:18:09;;;;;;;13.53;8.60;;;;;;;-145.18;100.00;46656.50;4994099;28;20034;-73
2022/07/30 05:20:35;;;;;;;12.57;7.60;;;;;;;-145.18;100.00;46650.63;4994175;28;20045;-72
2022/07/30 05:23:01;;;;;;;14.77;7.80;;;;;;;-145.18;100.00;46652.59;4992651;28;20034;-73
2022/07/30 05:25:26;;;;;;;14.83;7.33;;;;;;;-145.18;100.00;46654.53;4994352;28;20037;-73
2022/07/30 05:27:52;;;;;;;10.20;7.70;;;;;;;-145.18;100.00;46650.63;4992705;28;20113;-72
2022/07/30 05:30:17;;;;;;;12.43;7.30;;;;;;;-145.18;100.00;46650.63;4976575;28;20042;-72
2022/07/30 05:32:42;;;;;;;9.30;7.00;;;;;;;-145.18;100.00;46652.59;4993824;28;20027;-72
2022/07/30 05:35:08;;;;;;;13.27;7.03;;;;;;;-145.18;100.00;46650.63;4993754;28;20088;-72
2022/07/30 05:37:33;;;;;;;10.00;7.40;;;;;;;-145.18;100.00;46654.53;4993578;28;20057;-73
2022/07/30 05:39:59;;;;;;;12.97;8.00;;;;;;;-145.18;100.00;46650.63;4993955;28;20089;-73
2022/07/30 05:42:24;;;;;;;12.03;7.80;;;;;;;-145.18;100.00;46638.91;4992826;28;20034;-72
2022/07/30 05:44:49;;;;;;;12.93;7.37;;;;;;;-145.18;100.00;46652.59;4991837;28;20391;-72
2022/07/30 05:47:17;;;;;;;12.00;8.10;;;;;;;-145.18;100.00;46650.63;4983398;28;20486;-72
2022/07/30 05:49:42;;;;;;;13.30;7.73;;;;;;;-145.18;100.00;46638.91;4979886;28;20094;-73
2022/07/30 05:52:07;;;;;;;13.40;7.40;;;;;;;-145.18;100.00;46642.81;4981757;28;20085;-72
2022/07/30 05:54:33;;;;;;;11.13;6.97;;;;;;;-145.18;100.00;46642.81;4976691;28;20050;-72
2022/07/30 05:56:58;;;;;;;12.00;5.37;;;;;;;-145.18;100.00;46650.63;4987641;28;20121;-72
2022/07/30 05:59:24;;;;;;;11.10;6.40;;;;;;;-145.18;100.00;46640.88;4990721;28;20439;-73
2022/07/30 06:01:49;;;;;;;10.43;6.13;;;;;;;-145.18;100.00;46650.63;4993337;28;20038;-72
2022/07/30 06:04:14;;;;;;;13.30;5.50;;;;;;;-145.18;100.00;46650.63;4992426;28;20058;-72
2022/07/30 06:06:40;;;;;;;12.40;5.70;;;;;;;-145.18;100.00;46650.63;4993434;28;20046;-72
2022/07/30 06:09:05;;;;;;;13.57;6.60;;;;;;;-145.18;100.00;46652.59;4973157;28;20125;-72
2022/07/30 06:11:30;;;;;;;11.43;5.03;;;;;;;-145.18;100.00;46652.59;4992248;28;20064;-72
2022/07/30 06:13:56;;;;;;;8.27;4.60;;;;;;;-145.18;100.00;46611.56;4991344;28;20121;-73
2022/07/30 06:16:21;;;;;;;13.67;5.20;;;;;;;-145.18;100.00;46650.63;4985135;28;20053;-73
2022/07/30 06:18:46;;;;;;;23.07;6.50;;;;;;;-145.18;100.00;46611.56;4988883;28;20049;-72
2022/07/30 06:21:12;;;;;;;9.17;4.53;;;;;;;-145.18;100.00;46613.50;4992383;28;20045;-72
2022/07/30 06:23:37;;;;;;;16.73;4.53;;;;;;;-145.18;100.00;46617.41;4992354;28;20046;-72
2022/07/30 06:26:03;;;;;;;9.00;3.97;;;;;;;-145.18;100.00;46613.50;4992813;28;20037;-72
2022/07/30 06:28:28;;;;;;;8.30;4.40;;;;;;;-145.18;100.00;46613.50;4992255;28;20057;-73
2022/07/30 06:30:53;;;;;;;11.47;4.47;;;;;;;-145.18;100.00;46615.47;4992759;28;20046;-72
2022/07/30 06:33:19;;;;;;;11.27;4.13;;;;;;;-145.18;100.00;46615.47;4992069;28;20069;-73
2022/07/30 06:35:44;;;;;;;9.57;4.77;;;;;;;-145.18;100.00;46621.31;4975354;28;20042;-72
2022/07/30 06:38:09;;;;;;;7.70;3.73;;;;;;;-145.18;100.00;46623.28;4989197;28;20089;-72
2022/07/30 06:40:35;;;;;;;10.67;3.70;;;;;;;-145.18;100.00;46617.41;4983480;28;20491;-72
2022/07/30 06:43:01;;;;;;;6.10;3.37;;;;;;;-145.18;100.00;46619.38;4986188;28;20447;-72
2022/07/30 06:45:27;;;;;;;14.10;3.67;;;;;;;-145.18;100.00;46621.31;4992649;28;20387;-72
2022/07/30 06:47:57;;;;;;;9.73;3.30;;;;;;;-145.18;100.00;46619.38;4991887;28;20039;-72
2022/07/30 06:50:22;;;;;;;8.87;3.37;;;;;;;-145.18;100.00;46625.22;4992383;28;20041;-72
2022/07/30 06:52:47;;;;;;;7.67;3.63;;;;;;;-145.18;100.00;46629.13;4984558;28;20035;-72
2022/07/30 06:55:13;;;;;;;7.90;3.23;;;;;;;-145.18;100.00;46625.22;4972592;28;20153;-72
2022/07/30 06:57:38;;;;;;;8.13;3.13;;;;;;;-145.18;100.00;46629.13;4974109;28;20039;-72
2022/07/30 07:00:05;;;;;;;11.90;3.00;;;;;;;-145.18;100.00;46629.13;5011273;28;20478;-73
2022/07/30 07:02:31;;;;;;;7.17;3.07;;;;;;;-145.18;100.00;46633.06;4974718;28;20138;-73
2022/07/30 07:04:56;;;;;;;9.13;3.20;;;;;;;-145.18;100.00;46635.00;4973329;28;20116;-73
2022/07/30 07:07:21;;;;;;;9.70;3.57;;;;;;;-145.18;100.00;46633.06;4981375;28;20137;-73
2022/07/30 07:09:47;;;;;;;7.33;3.63;;;;;;;-145.18;100.00;46635.00;4972879;28;20026;-73
2022/07/30 07:12:12;;;;;;;11.43;3.40;;;;;;;-145.18;100.00;46629.13;4979639;28;20030;-73
2022/07/30 07:14:37;;;;;;;6.03;2.80;;;;;;;-145.18;100.00;46636.94;4972768;28;20085;-72
2022/07/30 07:17:03;;;;;;;8.43;2.87;;;;;;;-145.18;100.00;46633.06;4988200;28;20034;-73
2022/07/30 07:19:28;;;;;;;11.07;3.30;;;;;;;-145.18;100.00;46642.81;4980941;28;20510;-73
2022/07/30 07:21:53;;;;;;;6.13;3.10;;;;;;;-145.18;100.00;46636.94;4981457;28;20038;-73
2022/07/30 07:24:19;;;;;;;4.73;2.70;;;;;;;-145.18;100.00;46635.00;4978887;28;20027;-73
2022/07/30 07:26:44;;;;;;;4.60;2.10;;;;;;;-145.18;100.00;46642.81;4990806;28;20142;-73
2022/07/30 07:29:10;;;;;;;5.43;2.03;;;;;;;-145.18;100.00;46640.88;4991093;28;20042;-72
2022/07/30 07:31:35;;;;;;;5.47;2.00;;;;;;;-145.18;100.00;46644.78;4991304;28;20470;-73
2022/07/30 07:34:00;;;;;;;3.90;2.27;;;;;;;-145.18;100.00;46644.78;4973855;28;20031;-73
2022/07/30 07:36:26;;;;;;;9.97;2.80;;;;;;;-145.18;100.00;46642.81;4991514;28;20121;-73
2022/07/30 07:38:51;;;;;;;9.07;2.50;;;;;;;-145.18;100.00;46648.69;4990907;28;20037;-73
2022/07/30 07:41:16;;;;;;;8.53;2.80;;;;;;;-145.18;100.00;46646.72;4991327;28;20026;-73
2022/07/30 07:43:42;;;;;;;6.70;2.60;;;;;;;-145.18;100.00;46644.78;4991001;28;20058;-73
2022/07/30 07:46:07;;;;;;;5.50;2.23;;;;;;;-145.18;100.00;46648.69;4970280;28;20122;-73
2022/07/30 07:48:33;;;;;;;7.03;2.40;;;;;;;-145.18;100.00;46650.63;4974962;28;20035;-73
2022/07/30 07:50:59;;;;;;;5.90;2.80;;;;;;;-145.18;100.00;46648.69;4983131;28;20062;-73
2022/07/30 07:53:24;;;;;;;9.07;2.00;;;;;;;-145.18;100.00;46648.69;4978810;28;20026;-73
2022/07/30 07:55:50;;;;;;;3.57;1.80;;;;;;;-145.18;100.00;46650.63;4979992;28;20046;-73
2022/07/30 07:58:16;;;;;;;7.00;2.30;;;;;;;-145.18;100.00;46658.44;4979077;28;20125;-73
2022/07/30 08:00:41;;;;;;;5.77;2.03;;;;;;;-145.18;100.00;46648.69;4981169;28;20680;-73
2022/07/30 08:03:07;;;;;;;5.03;1.93;;;;;;;-145.18;100.00;46654.53;4968711;28;20415;-73
2022/07/30 08:05:32;;;;;;;7.03;2.37;;;;;;;-145.18;100.00;46656.50;4971716;28;20121;-73
2022/07/30 08:07:58;;;;;;;6.53;2.30;;;;;;;-145.18;100.00;46650.63;4971164;28;20034;-73
2022/07/30 08:10:24;;;;;;;8.20;2.10;;;;;;;-145.18;100.00;46660.41;4971877;28;20598;-74
2022/07/30 08:12:49;;;;;;;9.20;2.20;;;;;;;-145.18;100.00;46652.59;4974095;28;20572;-72
2022/07/30 08:15:15;;;;;;;7.13;2.50;;;;;;;-145.18;100.00;46660.41;4971066;28;20041;-73
2022/07/30 08:17:42;;;;;;;5.03;2.70;;;;;;;-145.18;100.00;46656.50;4971192;28;20573;-73
2022/07/30 08:20:08;;;;;;;9.70;2.50;;;;;;;-145.18;100.00;46660.41;4970418;28;20046;-72
2022/07/30 08:22:34;;;;;;;7.97;2.47;;;;;;;-145.18;100.00;46658.44;4971137;28;20384;-73
2022/07/30 08:24:59;;;;;;;5.33;2.53;;;;;;;-145.18;100.00;46652.59;4970878;28;20041;-72
2022/07/30 08:27:25;;;;;;;3.93;2.27;;;;;;;-145.18;100.00;46656.50;4953621;28;20026;-73
2022/07/30 08:29:50;;;;;;;6.33;2.83;;;;;;;-145.18;100.00;46652.59;4971169;28;20058;-72
2022/07/30 08:32:15;;;;;;;6.03;2.70;;;;;;;-145.18;100.00;46633.06;4970881;28;20450;-73
2022/07/30 08:34:41;;;;;;;4.87;2.40;;;;;;;-145.18;100.00;46644.78;4971020;28;20424;-72
2022/07/30 08:37:06;;;;;;;4.63;2.20;;;;;;;-145.18;100.00;46652.59;4970613;28;20042;-73
2022/07/30 08:39:32;;;;;;;4.70;2.30;;;;;;;-145.18;100.00;46633.06;4970578;28;20045;-73
2022/07/30 08:41:58;;;;;;;6.50;2.40;;;;;;;-145.18;100.00;46613.50;4970790;28;20077;-75
2022/07/30 08:44:25;;;;;;;4.33;2.30;;;;;;;-145.18;100.00;46609.59;4982444;28;20041;-73
2022/07/30 08:46:52;;;;;;;8.43;2.80;;;;;;;-145.18;100.00;46635.00;4990501;28;20038;-73
2022/07/30 08:49:18;;;;;;;5.67;2.03;;;;;;;-145.18;100.00;46564.69;4989868;28;20050;-76
2022/07/30 08:51:43;;;;;;;6.40;2.17;;;;;;;-145.18;100.00;46601.78;4990918;28;20395;-76
2022/07/30 08:54:09;;;;;;;5.87;2.10;;;;;;;-145.18;100.00;46590.06;4989683;28;20049;-75
2022/07/30 08:56:34;;;;;;;7.13;2.07;;;;;;;-145.18;100.00;46566.63;4990654;28;20046;-73
2022/07/30 08:59:00;;;;;;;7.40;2.50;;;;;;;-145.18;100.00;46578.34;4989864;28;20045;-77
2022/07/30 09:01:26;;;;;;;4.07;2.20;;;;;;;-145.18;100.00;46531.47;4973480;28;20039;-75
2022/07/30 09:03:51;;;;;;;2.97;1.63;;;;;;;-145.18;100.00;46527.56;4989728;28;20050;-75
2022/07/30 09:06:17;;;;;;;3.63;1.97;;;;;;;-145.18;100.00;46533.44;4990271;28;20505;-72
2022/07/30 09:08:42;;;;;;;2.63;1.80;;;;;;;-145.18;100.00;46543.19;4989727;28;20041;-73
2022/07/30 09:11:08;;;;;;;7.13;2.13;;;;;;;-145.18;100.00;46537.34;4990179;28;20037;-72
2022/07/30 09:13:40;;;;;;;6.80;2.37;;;;;;;-145.18;100.00;46537.34;4989812;28;20034;-72
2022/07/30 09:16:06;;;;;;;6.27;2.13;;;;;;;-145.18;100.00;46545.16;4990065;28;20065;-73
2022/07/30 09:18:36;;;;;;;7.23;2.00;;;;;;;-145.18;100.00;46541.25;4989589;28;20062;-72
2022/07/30 09:21:15;;;;;;;3.40;1.60;;;;;;;-145.18;100.00;46539.28;4990202;28;20034;-71
2022/07/30 09:23:58;;;;;;;11.73;2.00;;;;;;;-145.18;100.00;46539.28;4989455;28;20719;-72
2022/07/30 09:26:24;;;;;;;4.70;1.90;;;;;;;-145.18;100.00;46552.97;4990108;28;20023;-74
2022/07/30 09:28:49;;;;;;;7.13;2.17;;;;;;;-145.18;100.00;46552.97;4977514;28;20047;-73
2022/07/30 09:31:17;;;;;;;5.13;2.03;;;;;;;-145.18;100.00;46547.09;4970274;28;20511;-72
2022/07/30 09:33:45;;;;;;;2.93;2.00;;;;;;;-145.18;100.00;46541.25;4970009;28;20122;-73
2022/07/30 09:36:13;;;;;;;5.57;2.17;;;;;;;-145.18;100.00;46537.34;4970818;28;20109;-72
2022/07/30 09:38:50;;;;;;;7.57;2.23;;;;;;;-145.18;100.00;46551.00;4970160;28;20519;-73
2022/07/30 09:41:18;;;;;;;4.70;2.10;;;;;;;-145.18;100.00;46566.63;4970370;28;20820;-72
2022/07/30 09:43:51;;;;;;;6.73;2.07;;;;;;;-145.18;100.00;46576.41;4970420;28;20019;-76
2022/07/30 09:46:17;;;;;;;6.57;2.07;;;;;;;-145.18;100.00;46551.00;4970440;28;20514;-73
2022/07/30 09:48:45;;;;;;;4.83;1.97;;;;;;;-145.18;100.00;46552.97;4970928;28;20035;-73
2022/07/30 09:51:11;;;;;;;5.80;2.20;;;;;;;-145.18;100.00;46547.09;4976008;28;20030;-73
2022/07/30 09:53:53;;;;;;;4.97;1.90;;;;;;;-145.18;100.00;46552.97;4989520;28;20340;-74
2022/07/30 09:56:26;;;;;;;4.97;2.40;;;;;;;-145.18;100.00;46562.72;4993252;28;20035;-73
2022/07/30 09:58:52;;;;;;;4.30;2.07;;;;;;;-145.18;100.00;46558.81;4993008;28;20030;-74
2022/07/30 10:01:18;;;;;;;7.97;2.43;;;;;;;-145.18;100.00;46558.81;4982914;28;20090;-73
2022/07/30 10:03:44;;;;;;;3.87;2.00;;;;;;;-145.18;100.00;46529.53;4973158;28;20106;-73
2022/07/30 10:06:10;;;;;;;5.70;2.20;;;;;;;-145.18;100.00;46566.63;4956353;28;20042;-73
2022/07/30 10:08:45;;;;;;;4.00;2.43;;;;;;;-145.18;100.00;46552.97;4973531;28;20058;-73
2022/07/30 10:11:14;;;;;;;5.22;2.22;;;;;;;-145.18;100.00;46541.25;4973414;28;20034;-74
2022/07/30 10:13:40;;;;;;;7.67;2.20;;;;;;;-145.18;100.00;46582.25;4973100;28;20035;-73
2022/07/30 10:16:06;;;;;;;4.07;2.37;;;;;;;-145.18;100.00;46627.19;4973362;28;20475;-74
2022/07/30 10:18:31;;;;;;;6.67;2.43;;;;;;;-145.18;100.00;47043.28;4973411;28;20046;-75
2022/07/30 10:20:58;;;;;;;3.67;2.20;;;;;;;-145.18;100.00;47060.84;4954974;28;20121;-74
2022/07/30 10:23:26;;;;;;;6.23;2.30;;;;;;;-145.18;100.00;47045.22;4955285;28;20085;-74
2022/07/30 10:25:55;;;;;;;5.80;2.20;;;;;;;-145.18;100.00;46572.50;4973112;28;20522;-74
2022/07/30 10:28:22;;;;;;;4.07;2.20;;;;;;;-145.18;100.00;46865.50;4972753;28;20495;-74
2022/07/30 10:30:49;;;;;;;7.63;2.17;;;;;;;-145.18;100.00;46677.97;4972980;28;20037;-74
2022/07/30 10:33:15;;;;;;;3.57;2.03;;;;;;;-145.18;100.00;46683.84;4972922;28;20116;-74
2022/07/30 10:35:40;;;;;;;5.33;2.10;;;;;;;-145.18;100.00;46572.50;4972805;28;20030;-73
2022/07/30 10:38:10;;;;;;;7.40;2.00;;;;;;;-145.18;100.00;47090.16;4972908;28;20395;-74
2022/07/30 10:40:49;;;;;;;8.30;2.90;;;;;;;-145.18;100.00;47015.91;4972946;28;20030;-74
2022/07/30 10:43:32;;;;;;;7.87;2.23;;;;;;;-145.18;100.00;47006.16;4981292;28;20042;-74
2022/07/30 10:46:33;;;;;;;6.07;1.90;;;;;;;-145.18;100.00;46998.34;4991935;28;20026;-74
2022/07/30 10:49:13;;;;;;;4.30;2.20;;;;;;;-145.18;100.00;47008.09;4982968;28;20130;-74
2022/07/30 10:51:53;;;;;;;3.10;2.30;;;;;;;-145.18;100.00;47047.19;4987977;28;20100;-74
2022/07/30 10:54:36;;;;;;;5.23;2.00;;;;;;;-145.18;100.00;47066.72;4971675;28;20161;-74
2022/07/30 10:57:05;;;;;;;4.17;2.03;;;;;;;-145.18;100.00;47060.84;4972665;28;20030;-73
2022/07/30 10:59:57;;;;;;;5.27;2.20;;;;;;;-145.18;100.00;47060.84;4971565;28;20035;-74
2022/07/30 11:02:34;;;;;;;6.60;2.13;;;;;;;-145.18;100.00;47015.91;4972153;28;20075;-73